Flight Track Log - Related Links

Times and Time Zones

All times are in EDT time to prevent confusion due to time zone crossing. See the JZA8247 flight status page for this flight to view local times or setup timezone preferences in your user account.

Time Position Orientation Groundspeed Altitude Reporting Facility
EDT Latitude Longitude Course Direction KTS MPH feet Rate Location/Type
Fri 11:46:00 AM 49.5000 -117.7322 270° West  Level FlightAware Approximate
Fri 11:47:00 AM 49.4969 -117.8258 267° West  Level Estimated
Fri 11:47:47 AM 49.3333 -118.0000 267° West 200 230 10,000  Level Vancouver Center
Fri 11:48:00 AM 49.4938 -117.9193 267° West  Level Estimated
Fri 11:48:47 AM 49.3500 -118.0833 287° West 190 219 11,500  Level Vancouver Center
Fri 11:49:00 AM 49.4906 -118.0129 267° West  Level Estimated
Fri 11:49:47 AM 49.3500 -118.1833 270° West 190 219 12,700  Level Vancouver Center
Fri 11:50:00 AM 49.4873 -118.1064 267° West  Level Estimated
Fri 11:50:47 AM 49.3500 -118.2667 270° West 190 219 14,000  Level Vancouver Center
Fri 11:51:00 AM 49.4839 -118.1999 267° West  Level Estimated
Fri 11:51:47 AM 49.3500 -118.3333 270° West 190 219 15,100  Level Vancouver Center
Fri 11:52:00 AM 49.4805 -118.2934 267° West  Level Estimated
Fri 11:52:47 AM 49.3667 -118.4167 287° West 190 219 16,400  Level Vancouver Center
Fri 11:53:00 AM 49.4770 -118.3869 267° West  Level Estimated
Fri 11:53:47 AM 49.3667 -118.4833 270° West 180 207 17,500  Level Vancouver Center
Fri 11:54:47 AM 49.3667 -118.5667 270° West 180 207 18,400 900 Climbing Vancouver Center
Fri 11:55:47 AM 49.3667 -118.6500 270° West 180 207 19,300 900 Climbing Vancouver Center
Fri 11:56:47 AM 49.3833 -118.7167 291° West 190 219 20,200 900 Climbing Vancouver Center
Fri 11:57:47 AM 49.3833 -118.8167 270° West 190 219 21,100 900 Climbing Vancouver Center
Fri 11:58:47 AM 49.3833 -118.9000 270° West 190 219 22,000 850 Climbing Vancouver Center
Fri 11:59:47 AM 49.3833 -118.9833 270° West 190 219 22,800 750 Climbing Vancouver Center
Fri 12:00:47 PM 49.3833 -119.0500 270° West 180 207 23,500 600 Climbing Vancouver Center
Fri 12:01:47 PM 49.4000 -119.1333 287° West 190 219 24,000 250 Climbing Vancouver Center
Fri 12:02:47 PM 49.4000 -119.2000 270° West 210 242 24,000  Level Vancouver Center
Fri 12:03:47 PM 49.4167 -119.3000 284° West 230 265 24,000  Level Vancouver Center
Fri 12:04:47 PM 49.4167 -119.4167 270° West 240 276 24,000  Level Vancouver Center
Fri 12:05:47 PM 49.4167 -119.5167 270° West 240 276 24,000  Level Vancouver Center
Fri 12:06:47 PM 49.4333 -119.6333 282° West 250 288 24,000  Level Vancouver Center
Fri 12:07:47 PM 49.4333 -119.7500 270° West 250 288 24,000  Level Vancouver Center
Fri 12:08:47 PM 49.4333 -119.8500 270° West 250 288 24,000  Level Vancouver Center
Fri 12:09:47 PM 49.4333 -119.9500 270° West 250 288 24,000  Level Vancouver Center
Fri 12:10:47 PM 49.4500 -120.0500 284° West 260 299 24,000  Level Vancouver Center
Fri 12:11:47 PM 49.4500 -120.1833 270° West 260 299 24,000  Level Vancouver Center
Fri 12:12:47 PM 49.4500 -120.2833 270° West 260 299 24,000  Level Vancouver Center
Fri 12:13:47 PM 49.4500 -120.3833 270° West 260 299 24,000  Level Vancouver Center
Fri 12:14:47 PM 49.4500 -120.4833 270° West 260 299 24,000  Level Vancouver Center
Fri 12:15:47 PM 49.4667 -120.6167 281° West 260 299 24,000  Level Vancouver Center
Fri 12:16:47 PM 49.4667 -120.7167 270° West 260 299 24,000  Level Vancouver Center
Fri 12:17:47 PM 49.4667 -120.8167 270° West 250 288 24,000  Level Vancouver Center
Fri 12:18:47 PM 49.4667 -120.9500 270° West 260 299 24,000  Level Vancouver Center
Fri 12:19:47 PM 49.4667 -121.0500 270° West 250 288 24,000  Level Vancouver Center
Fri 12:20:47 PM 49.4833 -121.1500 284° West 250 288 24,000 -250 Level Vancouver Center
Fri 12:21:47 PM 49.4833 -121.2500 270° West 250 288 23,500 -900 Descending Vancouver Center
Fri 12:22:47 PM 49.4667 -121.3833 259° West 280 322 22,200 -1,300 Descending Vancouver Center
Fri 12:23:47 PM 49.4667 -121.5167 270° West 290 334 20,900 -1,250 Descending Vancouver Center
Fri 12:24:47 PM 49.4500 -121.6167 256° West 290 334 19,700 -1,300 Descending Vancouver Center
Fri 12:25:47 PM 49.4333 -121.7500 259° West 280 322 18,300 -1,300 Descending Vancouver Center
Fri 12:26:47 PM 49.4167 -121.8667 258° West 280 322 17,100 -1,250 Descending Vancouver Center
Fri 12:27:47 PM 49.4167 -121.9833 270° West 280 322 15,800 -1,241 Descending Vancouver Center
Fri 12:28:43 PM 49.4167 -122.0833 270° West 280 322 14,700 -1,241 Descending Vancouver Center
Fri 12:29:43 PM 49.4000 -122.2167 259° West 280 322 13,400 -1,300 Descending Vancouver Center
Fri 12:30:43 PM 49.3833 -122.3167 256° West 270 311 12,100 -1,450 Descending Vancouver Center
Fri 12:31:43 PM 49.3500 -122.4333 246° West 280 322 10,500 -1,500 Descending Vancouver Center
Fri 12:32:43 PM 49.3000 -122.5167 227° Southwest 270 311 9,100 -950 Descending Vancouver Center
Fri 12:33:43 PM 49.2667 -122.6167 243° Southwest 270 311 8,600 -1,200 Descending Vancouver Center
Fri 12:34:43 PM 49.2333 -122.7333 246° West 270 311 6,700 -1,800 Descending Vancouver Center
Fri 12:35:43 PM 49.2000 -122.8333 243° Southwest 260 299 5,000 -1,650 Descending Vancouver Center
Fri 12:36:43 PM 49.1667 -122.9000 233° Southwest 220 253 3,400 -1,350 Descending Vancouver Center
Fri 12:37:43 PM 49.1667 -122.9833 270° West 190 219 2,300 -1,100 Descending Vancouver Center

Login

Don't have an account? Register now (free) for customized features, flight alerts, and more!